Time;durP1;ratioP1;P1;durP2;ratioP2;P2;SDS_P1;SDS_P2;PMS_P1;PMS_P2;Temp;Humidity;BMP_temperature;BMP_pressure;BME280_temperature;BME280_humidity;BME280_pressure;Samples;Min_cycle;Max_cycle;Signal;HPM_P1;HPM_P2
2023/04/08 00:01:25;;;;;;;26.03;19.20;;;10.00;67.70;;;;;;6277576;22;20306;-68
2023/04/08 00:03:51;;;;;;;28.53;19.00;;;10.00;67.60;;;;;;6277580;22;20000;-68
2023/04/08 00:06:16;;;;;;;23.37;17.40;;;9.90;68.00;;;;;;6277223;22;20003;-67
2023/04/08 00:08:42;;;;;;;22.80;17.63;;;9.90;68.00;;;;;;6277537;22;19996;-67
2023/04/08 00:11:08;;;;;;;26.97;17.93;;;9.90;67.90;;;;;;6250562;22;20012;-67
2023/04/08 00:13:34;;;;;;;26.00;17.80;;;9.90;67.60;;;;;;6277700;22;20026;-66
2023/04/08 00:16:00;;;;;;;24.53;18.43;;;9.90;68.00;;;;;;6250305;22;20082;-66
2023/04/08 00:18:26;;;;;;;24.03;17.67;;;9.80;67.40;;;;;;6277331;22;20050;-67
2023/04/08 00:20:52;;;;;;;25.83;18.17;;;9.80;66.10;;;;;;6277492;22;20034;-66
2023/04/08 00:23:20;;;;;;;24.57;17.53;;;9.80;65.90;;;;;;6277644;22;20376;-67
2023/04/08 00:25:45;;;;;;;24.00;17.23;;;9.80;66.30;;;;;;6277191;22;20003;-67
2023/04/08 00:28:11;;;;;;;27.40;17.70;;;9.80;66.20;;;;;;6277332;22;20003;-67
2023/04/08 00:30:37;;;;;;;24.93;17.97;;;9.80;66.60;;;;;;6277210;22;20069;-67
2023/04/08 00:33:03;;;;;;;27.60;18.03;;;9.70;66.00;;;;;;6277454;22;20000;-67
2023/04/08 00:35:29;;;;;;;25.10;17.30;;;9.70;65.50;;;;;;6277109;22;20329;-66
2023/04/08 00:37:54;;;;;;;25.53;17.50;;;9.70;66.50;;;;;;6277266;22;20326;-67
2023/04/08 00:40:20;;;;;;;25.63;17.03;;;9.70;67.50;;;;;;6277194;22;20008;-67
2023/04/08 00:42:46;;;;;;;23.53;17.03;;;9.60;67.60;;;;;;6277238;22;20107;-67
2023/04/08 00:45:12;;;;;;;23.47;17.73;;;9.60;67.60;;;;;;6277486;22;20006;-67
2023/04/08 00:47:38;;;;;;;21.83;17.17;;;9.50;67.40;;;;;;6277315;22;20000;-67
2023/04/08 00:50:08;;;;;;;24.27;17.00;;;9.50;67.30;;;;;;6276630;22;20091;-67
2023/04/08 00:52:34;;;;;;;24.80;16.80;;;9.50;66.80;;;;;;6277066;22;20003;-67
2023/04/08 00:54:59;;;;;;;23.33;17.30;;;9.50;67.50;;;;;;6277453;22;20050;-67
2023/04/08 00:57:25;;;;;;;22.37;17.37;;;9.40;67.80;;;;;;6276627;22;20012;-66
2023/04/08 00:59:51;;;;;;;24.30;17.53;;;9.40;67.30;;;;;;6273822;22;20004;-67
2023/04/08 01:02:35;;;;;;;22.27;17.13;;;9.40;68.20;;;;;;6273756;22;20016;-67
2023/04/08 01:05:27;;;;;;;23.00;16.93;;;9.30;67.90;;;;;;6275345;22;20018;-66
2023/04/08 01:07:53;;;;;;;26.03;16.97;;;9.40;67.60;;;;;;6277101;22;20015;-68
2023/04/08 01:10:28;;;;;;;21.67;16.70;;;9.30;67.00;;;;;;6276773;22;20061;-66
2023/04/08 01:12:57;;;;;;;24.67;16.57;;;9.30;67.30;;;;;;6277005;22;20034;-67
2023/04/08 01:15:26;;;;;;;19.93;15.93;;;9.30;67.00;;;;;;6276754;22;20007;-67
2023/04/08 01:17:54;;;;;;;21.53;14.87;;;9.20;67.30;;;;;;6276920;22;20003;-67
2023/04/08 01:20:22;;;;;;;24.03;16.07;;;9.20;67.10;;;;;;6276149;22;20018;-67
2023/04/08 01:23:00;;;;;;;26.03;16.73;;;9.20;66.90;;;;;;6276899;22;19996;-67
2023/04/08 01:25:36;;;;;;;22.00;15.67;;;9.20;66.70;;;;;;6276813;22;20071;-67
2023/04/08 01:28:12;;;;;;;22.37;16.27;;;9.20;66.70;;;;;;6276244;22;20053;-67
2023/04/08 01:30:39;;;;;;;25.10;15.80;;;9.20;67.30;;;;;;6276184;22;20391;-67
2023/04/08 01:33:06;;;;;;;22.23;15.93;;;9.10;67.40;;;;;;6249503;22;20012;-67
2023/04/08 01:35:32;;;;;;;22.10;15.93;;;9.10;67.00;;;;;;6276569;22;20000;-67
2023/04/08 01:38:00;;;;;;;19.57;14.97;;;9.10;68.20;;;;;;6276815;22;20003;-67
2023/04/08 01:40:26;;;;;;;19.90;15.93;;;9.10;67.90;;;;;;6276370;22;20015;-67
2023/04/08 01:42:55;;;;;;;23.73;16.37;;;9.10;68.00;;;;;;6276630;22;20000;-67
2023/04/08 01:45:23;;;;;;;20.13;15.40;;;9.10;68.40;;;;;;6276785;22;20003;-66
2023/04/08 01:47:50;;;;;;;21.53;15.33;;;9.10;67.90;;;;;;6276799;22;20003;-67
2023/04/08 01:50:16;;;;;;;21.60;15.87;;;9.10;67.80;;;;;;6259662;22;20047;-67
2023/04/08 01:52:48;;;;;;;21.20;14.77;;;9.00;68.10;;;;;;6245955;23;20078;-67
2023/04/08 01:55:14;;;;;;;24.80;15.53;;;9.00;68.10;;;;;;6245936;23;19996;-67
2023/04/08 01:57:45;;;;;;;24.47;15.97;;;9.00;68.70;;;;;;6246151;23;20353;-67
2023/04/08 02:00:13;;;;;;;26.50;15.70;;;9.00;67.60;;;;;;6245969;23;20071;-67
2023/04/08 02:02:42;;;;;;;23.83;17.50;;;9.00;67.70;;;;;;6246073;23;20000;-66
2023/04/08 02:05:08;;;;;;;22.17;17.00;;;8.90;67.70;;;;;;6245667;23;20079;-66
2023/04/08 02:07:34;;;;;;;22.60;16.23;;;8.90;67.20;;;;;;6245809;23;20027;-66
2023/04/08 02:10:00;;;;;;;20.37;15.43;;;8.90;67.50;;;;;;6245953;23;20008;-67
2023/04/08 02:12:26;;;;;;;24.50;15.87;;;8.90;67.60;;;;;;6245945;23;20326;-66
2023/04/08 02:14:53;;;;;;;22.27;16.13;;;8.80;67.40;;;;;;6245902;23;20000;-68
2023/04/08 02:17:28;;;;;;;19.87;14.90;;;8.80;67.90;;;;;;6245711;23;20000;-67
2023/04/08 02:20:09;;;;;;;22.93;15.60;;;8.80;68.40;;;;;;6245805;23;20015;-67
2023/04/08 02:22:49;;;;;;;22.97;15.60;;;8.80;67.80;;;;;;6219256;23;20446;-67
2023/04/08 02:25:20;;;;;;;24.60;15.60;;;8.70;67.60;;;;;;6245752;23;20168;-66
2023/04/08 02:27:48;;;;;;;24.50;15.83;;;8.70;68.00;;;;;;6245826;23;19996;-66
2023/04/08 02:30:15;;;;;;;20.30;15.07;;;8.70;67.80;;;;;;6245753;23;20083;-66
2023/04/08 02:32:42;;;;;;;26.00;15.33;;;8.60;68.40;;;;;;6245262;23;20001;-66
2023/04/08 02:35:11;;;;;;;21.20;14.50;;;8.60;68.60;;;;;;6245187;23;20031;-66
2023/04/08 02:37:37;;;;;;;20.53;14.23;;;8.60;68.00;;;;;;6241303;23;20079;-66
2023/04/08 02:40:03;;;;;;;21.43;15.37;;;8.60;69.30;;;;;;6242077;23;20078;-67
2023/04/08 02:42:29;;;;;;;23.93;14.83;;;8.50;68.40;;;;;;6245638;23;20000;-66
2023/04/08 02:44:56;;;;;;;23.57;13.53;;;8.60;69.00;;;;;;6245574;23;20193;-67
2023/04/08 02:47:22;;;;;;;22.37;15.17;;;8.50;68.80;;;;;;6245427;23;20000;-67
2023/04/08 02:49:51;;;;;;;22.67;13.87;;;8.50;68.90;;;;;;6256223;22;20090;-66
2023/04/08 02:52:17;;;;;;;21.33;14.80;;;8.50;69.50;;;;;;6276105;22;20000;-67
2023/04/08 02:54:42;;;;;;;23.50;15.13;;;8.50;69.60;;;;;;6275926;22;19999;-66
2023/04/08 02:57:08;;;;;;;22.37;15.03;;;8.40;70.70;;;;;;6276195;22;20022;-66
2023/04/08 02:59:36;;;;;;;20.37;13.37;;;8.40;70.00;;;;;;6276144;22;19999;-66
2023/04/08 03:02:02;;;;;;;20.67;13.30;;;8.40;70.90;;;;;;6276247;22;20034;-66
2023/04/08 03:04:28;;;;;;;23.03;15.67;;;8.40;70.40;;;;;;6276168;22;20401;-67
2023/04/08 03:06:53;;;;;;;20.37;14.40;;;8.40;70.90;;;;;;6276288;22;20121;-66
2023/04/08 03:09:19;;;;;;;19.43;14.83;;;8.40;70.70;;;;;;6276067;22;20114;-67
2023/04/08 03:11:51;;;;;;;19.90;14.03;;;8.40;69.50;;;;;;6276295;22;20025;-67
2023/04/08 03:14:17;;;;;;;19.33;14.45;;;8.40;69.60;;;;;;6275782;22;19999;-67
2023/04/08 03:16:42;;;;;;;22.97;15.33;;;8.40;69.80;;;;;;6276315;22;20000;-67
2023/04/08 03:19:08;;;;;;;21.10;15.27;;;8.50;70.10;;;;;;6276341;22;20004;-66
2023/04/08 03:21:34;;;;;;;20.13;15.00;;;8.40;69.80;;;;;;6276027;22;20012;-67
2023/04/08 03:23:59;;;;;;;20.23;14.70;;;8.50;70.50;;;;;;6275678;22;20028;-66
2023/04/08 03:26:26;;;;;;;23.93;15.70;;;8.50;70.50;;;;;;6275680;22;20011;-66
2023/04/08 03:28:52;;;;;;;25.33;14.93;;;8.40;70.70;;;;;;6276119;22;20330;-67
2023/04/08 03:31:20;;;;;;;22.23;16.07;;;8.40;70.50;;;;;;6275837;22;20000;-67
2023/04/08 03:33:46;;;;;;;26.03;15.87;;;8.40;71.20;;;;;;6276102;22;20440;-67
2023/04/08 03:36:12;;;;;;;24.97;16.10;;;8.40;71.60;;;;;;6275963;22;20010;-67
2023/04/08 03:38:37;;;;;;;27.13;16.17;;;8.40;72.00;;;;;;6275958;22;20024;-67
2023/04/08 03:41:03;;;;;;;27.20;15.87;;;8.40;72.20;;;;;;6275860;22;20106;-67
2023/04/08 03:43:30;;;;;;;22.83;16.30;;;8.40;72.50;;;;;;6275884;22;20753;-66
2023/04/08 03:45:56;;;;;;;26.30;17.10;;;8.30;71.50;;;;;;6275848;22;20446;-66
2023/04/08 03:48:22;;;;;;;23.20;15.57;;;8.40;71.70;;;;;;6276142;22;19996;-66
2023/04/08 03:50:48;;;;;;;20.30;14.87;;;8.30;71.10;;;;;;6275885;22;20020;-67
2023/04/08 03:53:13;;;;;;;19.77;14.63;;;8.30;70.30;;;;;;6275976;22;20094;-66
2023/04/08 03:55:39;;;;;;;23.13;14.17;;;8.30;69.20;;;;;;6276010;22;20088;-66
2023/04/08 03:58:05;;;;;;;22.60;14.20;;;8.30;69.20;;;;;;6275668;22;20007;-67
2023/04/08 04:00:31;;;;;;;20.40;14.43;;;8.20;69.70;;;;;;6275883;22;20007;-67
2023/04/08 04:02:57;;;;;;;19.03;14.53;;;8.20;70.00;;;;;;6275990;22;20000;-67
2023/04/08 04:05:22;;;;;;;20.90;14.87;;;8.10;70.50;;;;;;6275757;22;20027;-67
2023/04/08 04:07:48;;;;;;;20.73;13.47;;;8.10;70.70;;;;;;6276045;22;20094;-66
2023/04/08 04:10:14;;;;;;;24.23;13.67;;;8.10;70.40;;;;;;6276000;22;20004;-66
2023/04/08 04:12:40;;;;;;;17.73;14.13;;;8.10;70.40;;;;;;6275661;22;20016;-67
2023/04/08 04:15:06;;;;;;;18.93;13.73;;;8.10;71.50;;;;;;6275529;22;20023;-67
2023/04/08 04:17:32;;;;;;;19.10;13.63;;;8.00;70.90;;;;;;6275455;22;20329;-67
2023/04/08 04:19:57;;;;;;;25.63;15.43;;;8.10;71.50;;;;;;6275597;22;20003;-66
2023/04/08 04:22:23;;;;;;;24.00;14.17;;;8.00;71.20;;;;;;6275617;22;20015;-66
2023/04/08 04:24:49;;;;;;;21.90;13.37;;;8.00;71.30;;;;;;6275571;22;20004;-66
2023/04/08 04:27:16;;;;;;;19.03;13.70;;;8.00;70.70;;;;;;6277537;22;20464;-67
2023/04/08 04:29:43;;;;;;;21.03;14.33;;;8.00;70.90;;;;;;6277363;22;20490;-67
2023/04/08 04:32:08;;;;;;;19.77;13.77;;;8.00;70.50;;;;;;6277395;22;20083;-66
2023/04/08 04:34:34;;;;;;;21.33;12.70;;;8.00;70.10;;;;;;6277454;22;20023;-67
2023/04/08 04:37:00;;;;;;;20.57;13.80;;;7.90;70.40;;;;;;6277393;22;20049;-67
2023/04/08 04:39:26;;;;;;;19.27;13.43;;;7.90;70.30;;;;;;6277425;22;20000;-67
2023/04/08 04:41:52;;;;;;;22.07;14.70;;;7.90;70.50;;;;;;6277310;22;20058;-67
2023/04/08 04:44:18;;;;;;;23.33;14.83;;;7.80;70.00;;;;;;6277263;22;19991;-66
2023/04/08 04:46:44;;;;;;;22.27;14.87;;;7.80;69.50;;;;;;6277667;22;20338;-66
2023/04/08 04:49:10;;;;;;;20.77;13.60;;;7.70;69.80;;;;;;6277305;22;20074;-67
2023/04/08 04:51:35;;;;;;;23.83;14.17;;;7.70;70.80;;;;;;6277344;22;20004;-66
2023/04/08 04:54:01;;;;;;;17.67;13.33;;;7.60;70.80;;;;;;6277457;22;19995;-66
2023/04/08 04:56:27;;;;;;;22.67;13.70;;;7.60;70.90;;;;;;6277370;22;20048;-67
2023/04/08 04:58:53;;;;;;;16.83;12.60;;;7.60;70.30;;;;;;6277012;22;20018;-67
2023/04/08 05:01:19;;;;;;;19.07;12.13;;;7.60;69.70;;;;;;6277380;22;20003;-67
2023/04/08 05:03:45;;;;;;;18.43;13.20;;;7.60;69.80;;;;;;6277282;22;20020;-67
2023/04/08 05:06:11;;;;;;;19.60;12.80;;;7.60;70.50;;;;;;6277302;22;20000;-66
2023/04/08 05:08:36;;;;;;;21.37;12.73;;;7.50;70.50;;;;;;6276887;22;20057;-66
2023/04/08 05:11:02;;;;;;;22.53;13.80;;;7.50;70.60;;;;;;6277221;22;20042;-67
2023/04/08 05:13:28;;;;;;;18.07;11.90;;;7.50;70.80;;;;;;6277737;22;20430;-67
2023/04/08 05:15:54;;;;;;;23.93;12.50;;;7.50;71.60;;;;;;6277133;22;20003;-66
2023/04/08 05:18:20;;;;;;;20.67;12.77;;;7.50;71.40;;;;;;6277053;22;20000;-66
2023/04/08 05:20:46;;;;;;;18.93;12.27;;;7.50;71.80;;;;;;6277251;22;20441;-66
2023/04/08 05:23:12;;;;;;;17.30;11.37;;;7.50;71.20;;;;;;6276865;22;20003;-67
2023/04/08 05:25:37;;;;;;;17.07;12.50;;;7.40;71.60;;;;;;6277172;22;20070;-66
2023/04/08 05:28:03;;;;;;;19.17;12.97;;;7.40;71.80;;;;;;6276705;22;20003;-66
2023/04/08 05:30:30;;;;;;;18.33;12.47;;;7.40;72.30;;;;;;6250063;22;20423;-66
2023/04/08 05:32:56;;;;;;;14.33;10.80;;;7.40;71.60;;;;;;6277324;22;20064;-66
2023/04/08 05:35:21;;;;;;;22.73;12.47;;;7.50;71.60;;;;;;6276986;22;20037;-67
2023/04/08 05:37:47;;;;;;;21.43;13.43;;;7.40;71.30;;;;;;6276646;22;20004;-67
2023/04/08 05:40:13;;;;;;;18.87;13.23;;;7.50;70.90;;;;;;6276990;22;20462;-67
2023/04/08 05:42:41;;;;;;;18.17;12.90;;;7.50;71.50;;;;;;6276732;22;20046;-67
2023/04/08 05:45:07;;;;;;;23.33;12.43;;;7.50;71.30;;;;;;6276918;22;20364;-67
2023/04/08 05:47:33;;;;;;;32.10;14.60;;;7.50;71.40;;;;;;6276532;22;20371;-67
2023/04/08 05:49:58;;;;;;;25.43;13.27;;;7.50;71.50;;;;;;6275003;22;20054;-67
2023/04/08 05:52:24;;;;;;;19.27;13.17;;;7.50;71.10;;;;;;6275899;22;20000;-67
2023/04/08 05:54:50;;;;;;;18.17;12.23;;;7.60;71.80;;;;;;6276359;22;20000;-67
2023/04/08 05:57:16;;;;;;;20.30;13.03;;;7.60;71.60;;;;;;6276542;22;19999;-67
2023/04/08 05:59:41;;;;;;;18.70;13.23;;;7.60;71.30;;;;;;6276558;22;20031;-67
2023/04/08 06:02:07;;;;;;;21.77;12.87;;;7.70;71.50;;;;;;6276521;22;20007;-67
2023/04/08 06:04:33;;;;;;;26.53;13.20;;;7.70;71.50;;;;;;6276475;22;20054;-67
2023/04/08 06:07:01;;;;;;;18.43;12.20;;;7.80;71.60;;;;;;6276569;22;20007;-66
2023/04/08 06:09:27;;;;;;;22.37;13.07;;;7.80;71.60;;;;;;6276434;22;19996;-67
2023/04/08 06:11:53;;;;;;;24.87;13.07;;;7.80;71.90;;;;;;6276345;22;20007;-67
2023/04/08 06:14:19;;;;;;;20.37;13.23;;;7.90;73.20;;;;;;6248992;22;20004;-67
2023/04/08 06:16:45;;;;;;;26.80;12.67;;;8.00;73.10;;;;;;6276603;22;20035;-67
2023/04/08 06:19:11;;;;;;;27.00;13.03;;;8.00;73.00;;;;;;6276272;22;20295;-67
2023/04/08 06:21:36;;;;;;;27.50;13.40;;;8.10;73.40;;;;;;6276430;22;20004;-67
2023/04/08 06:24:02;;;;;;;18.70;12.70;;;8.10;72.80;;;;;;6276288;22;20067;-67
2023/04/08 06:26:28;;;;;;;21.07;12.83;;;8.20;72.20;;;;;;6276358;22;20003;-66
2023/04/08 06:28:54;;;;;;;20.20;12.93;;;8.20;71.80;;;;;;6276403;22;20011;-66
2023/04/08 06:31:20;;;;;;;21.07;13.10;;;8.20;70.80;;;;;;6276463;22;20087;-67
2023/04/08 06:33:46;;;;;;;19.13;13.60;;;8.30;71.00;;;;;;6276117;22;20038;-67
2023/04/08 06:36:12;;;;;;;19.43;13.47;;;8.30;71.30;;;;;;6276014;22;19996;-67
2023/04/08 06:38:38;;;;;;;18.53;13.23;;;8.40;72.50;;;;;;6276517;22;20032;-67
2023/04/08 06:41:08;;;;;;;22.70;14.07;;;8.40;72.80;;;;;;6276163;22;20434;-67
2023/04/08 06:43:36;;;;;;;21.23;14.03;;;8.40;72.40;;;;;;6276304;22;19996;-67
2023/04/08 06:46:02;;;;;;;23.50;14.30;;;8.50;72.20;;;;;;6275680;22;20023;-67
2023/04/08 06:48:29;;;;;;;22.03;14.50;;;8.60;72.00;;;;;;6276112;22;20062;-67
2023/04/08 06:51:00;;;;;;;20.63;13.97;;;8.70;72.50;;;;;;6276094;22;20038;-67
2023/04/08 06:53:28;;;;;;;22.53;14.37;;;8.70;72.70;;;;;;6275902;22;20384;-67
2023/04/08 06:55:54;;;;;;;25.70;13.93;;;8.80;72.90;;;;;;6275974;22;20334;-68
2023/04/08 06:58:20;;;;;;;19.93;14.33;;;8.90;72.50;;;;;;6275953;22;20028;-67
2023/04/08 07:00:46;;;;;;;21.77;14.47;;;8.90;71.80;;;;;;6276258;22;20007;-67
2023/04/08 07:03:12;;;;;;;25.83;14.87;;;9.00;71.60;;;;;;6276302;22;20012;-67
2023/04/08 07:05:38;;;;;;;24.17;14.37;;;9.00;71.50;;;;;;6275830;22;20456;-67
2023/04/08 07:08:05;;;;;;;23.37;14.70;;;9.10;71.60;;;;;;6276074;22;20004;-67
2023/04/08 07:10:31;;;;;;;21.60;14.30;;;9.20;71.60;;;;;;6275871;22;20035;-69
2023/04/08 07:12:57;;;;;;;19.67;14.13;;;9.30;71.40;;;;;;6275982;22;19999;-67
2023/04/08 07:15:22;;;;;;;25.17;13.63;;;9.40;70.80;;;;;;6275821;22;20091;-67
2023/04/08 07:17:48;;;;;;;23.37;13.93;;;9.50;70.20;;;;;;6275940;22;20433;-66
2023/04/08 07:20:14;;;;;;;20.93;14.07;;;9.50;69.80;;;;;;6275509;22;20007;-66
2023/04/08 07:22:40;;;;;;;24.43;13.90;;;9.60;69.90;;;;;;6275745;22;20003;-67
2023/04/08 07:25:06;;;;;;;22.80;14.17;;;9.70;70.60;;;;;;6275748;22;20563;-67
2023/04/08 07:27:35;;;;;;;22.17;13.87;;;9.80;71.50;;;;;;6275841;22;20091;-66
2023/04/08 07:30:01;;;;;;;21.70;14.33;;;9.90;71.10;;;;;;6275791;22;19996;-67
2023/04/08 07:32:27;;;;;;;22.93;13.80;;;10.00;70.80;;;;;;6275804;22;20456;-66
2023/04/08 07:34:53;;;;;;;23.97;14.17;;;10.20;70.80;;;;;;6275901;22;20000;-67
2023/04/08 07:37:19;;;;;;;20.33;13.73;;;10.30;69.70;;;;;;6275376;22;19992;-66
2023/04/08 07:39:45;;;;;;;24.00;14.30;;;10.30;68.50;;;;;;6275875;22;20061;-67
2023/04/08 07:42:10;;;;;;;26.17;13.47;;;10.40;68.10;;;;;;6275677;22;20058;-67
2023/04/08 07:44:37;;;;;;;21.13;13.50;;;10.50;68.30;;;;;;6275492;22;20387;-67
2023/04/08 07:47:03;;;;;;;20.17;13.90;;;10.70;67.90;;;;;;6275525;22;20000;-67
2023/04/08 07:49:29;;;;;;;20.20;13.10;;;10.80;67.20;;;;;;6275483;22;20011;-67
2023/04/08 07:51:54;;;;;;;21.57;14.83;;;10.90;66.80;;;;;;6275666;22;20035;-67
2023/04/08 07:54:20;;;;;;;24.17;14.13;;;10.90;66.50;;;;;;6276007;22;20006;-67
2023/04/08 07:56:46;;;;;;;19.00;13.05;;;11.00;66.80;;;;;;6275794;22;20413;-67
2023/04/08 07:59:12;;;;;;;21.70;13.43;;;11.00;66.30;;;;;;6275567;22;19996;-66
2023/04/08 08:01:38;;;;;;;22.65;13.10;;;11.10;65.60;;;;;;6276740;22;20349;-67
2023/04/08 08:04:03;;;;;;;22.67;13.02;;;11.10;64.70;;;;;;6277003;22;20071;-68
2023/04/08 08:06:32;;;;;;;22.20;13.48;;;11.10;64.70;;;;;;6250254;22;20043;-68
2023/04/08 08:08:59;;;;;;;25.48;13.82;;;11.20;64.50;;;;;;6278050;22;20007;-68
2023/04/08 08:11:28;;;;;;;22.10;13.27;;;11.30;64.10;;;;;;6277748;22;20006;-68
2023/04/08 08:13:54;;;;;;;21.58;12.63;;;11.30;64.10;;;;;;6277181;22;20422;-67
2023/04/08 08:16:20;;;;;;;22.00;12.50;;;11.40;64.00;;;;;;6277236;22;19996;-67
2023/04/08 08:18:45;;;;;;;17.38;11.38;;;11.40;63.20;;;;;;6277746;22;20038;-67
2023/04/08 08:21:11;;;;;;;24.70;12.52;;;11.50;62.20;;;;;;6277628;22;20341;-67
2023/04/08 08:23:37;;;;;;;21.33;12.57;;;11.50;62.70;;;;;;6277154;22;20008;-69
2023/04/08 08:26:05;;;;;;;19.65;11.80;;;11.60;62.40;;;;;;6277409;22;20012;-69
2023/04/08 08:28:32;;;;;;;22.73;11.27;;;11.60;61.70;;;;;;6277322;22;20007;-70
2023/04/08 08:30:58;;;;;;;19.67;12.20;;;11.60;61.80;;;;;;6277250;22;20441;-68
2023/04/08 08:33:24;;;;;;;19.85;12.18;;;11.70;60.90;;;;;;6277164;22;20023;-69
2023/04/08 08:35:51;;;;;;;24.00;13.52;;;11.70;60.90;;;;;;6250107;22;20007;-69
2023/04/08 08:38:17;;;;;;;16.73;11.63;;;11.80;60.80;;;;;;6276927;22;20028;-68
2023/04/08 08:40:44;;;;;;;17.95;11.57;;;11.90;60.10;;;;;;6277555;22;20028;-69
2023/04/08 08:43:10;;;;;;;18.58;11.68;;;11.90;58.90;;;;;;6277162;22;20095;-69
2023/04/08 08:45:40;;;;;;;16.92;11.02;;;12.00;58.90;;;;;;6277314;22;19996;-68
2023/04/08 08:48:09;;;;;;;17.85;11.30;;;12.10;59.90;;;;;;6277120;22;20042;-69
2023/04/08 08:50:35;;;;;;;19.42;10.55;;;12.20;59.40;;;;;;6276605;22;20457;-69
2023/04/08 08:53:02;;;;;;;19.88;10.00;;;12.30;59.20;;;;;;6277430;22;20414;-69
2023/04/08 08:55:33;;;;;;;14.68;9.68;;;12.30;57.70;;;;;;6276855;22;20424;-68
2023/04/08 08:58:03;;;;;;;16.27;7.82;;;12.50;56.80;;;;;;6275191;22;20329;-70
2023/04/08 09:00:41;;;;;;;13.75;7.88;;;12.60;55.90;;;;;;6247434;22;20511;-68
2023/04/08 09:03:22;;;;;;;10.32;6.63;;;12.60;54.80;;;;;;6277237;22;20382;-68
2023/04/08 09:05:59;;;;;;;9.77;6.15;;;12.80;53.00;;;;;;6277244;22;20000;-69
2023/04/08 09:08:30;;;;;;;9.90;5.60;;;12.80;50.50;;;;;;6277254;22;20322;-69
2023/04/08 09:11:15;;;;;;;10.30;5.22;;;12.90;49.20;;;;;;6276975;22;20008;-69
2023/04/08 09:13:42;;;;;;;10.52;4.97;;;12.90;49.90;;;;;;6276932;22;19996;-69
2023/04/08 09:16:09;;;;;;;8.57;5.07;;;12.90;48.60;;;;;;6277192;22;20023;-69
2023/04/08 09:18:36;;;;;;;7.93;4.53;;;12.90;48.60;;;;;;6276608;22;20003;-69
2023/04/08 09:21:04;;;;;;;8.18;4.18;;;13.00;47.90;;;;;;6277062;22;20014;-68
2023/04/08 09:23:44;;;;;;;6.10;4.15;;;13.10;48.10;;;;;;6277130;22;20057;-69
2023/04/08 09:26:15;;;;;;;10.20;4.55;;;13.10;47.50;;;;;;6277003;22;20003;-68
2023/04/08 09:28:43;;;;;;;7.00;4.20;;;13.20;46.90;;;;;;6276803;22;20119;-69
2023/04/08 09:31:23;;;;;;;7.60;4.85;;;13.10;47.40;;;;;;6249718;22;20007;-69
2023/04/08 09:33:50;;;;;;;8.38;5.28;;;13.20;47.10;;;;;;6249813;22;20039;-68
2023/04/08 09:36:16;;;;;;;7.50;5.18;;;13.20;46.70;;;;;;6276613;22;20091;-69
2023/04/08 09:38:45;;;;;;;10.65;4.72;;;13.20;47.10;;;;;;6276109;22;20045;-69
2023/04/08 09:41:16;;;;;;;12.05;4.75;;;13.20;46.60;;;;;;6276116;22;20008;-69
2023/04/08 09:43:48;;;;;;;9.15;5.22;;;13.30;45.50;;;;;;6275198;22;20027;-69
2023/04/08 09:46:17;;;;;;;9.52;4.97;;;13.30;45.70;;;;;;6274875;22;20003;-69
2023/04/08 09:48:51;;;;;;;8.50;5.75;;;13.30;46.20;;;;;;6276415;22;20326;-70
2023/04/08 09:51:20;;;;;;;10.68;5.65;;;13.30;44.60;;;;;;6275781;22;20438;-70
2023/04/08 09:53:49;;;;;;;7.60;5.28;;;13.30;44.50;;;;;;6275761;22;20067;-69
2023/04/08 09:56:18;;;;;;;13.15;5.68;;;13.30;44.80;;;;;;6276016;22;20007;-69
2023/04/08 09:58:47;;;;;;;8.63;5.38;;;13.40;44.00;;;;;;6276241;22;19995;-69
2023/04/08 10:01:20;;;;;;;8.50;5.07;;;13.40;45.30;;;;;;6275666;22;20008;-70
2023/04/08 10:03:51;;;;;;;9.30;5.45;;;13.40;44.10;;;;;;6248438;22;20058;-69
2023/04/08 10:06:18;;;;;;;7.43;5.15;;;13.50;45.00;;;;;;6276364;22;20011;-68
2023/04/08 10:08:45;;;;;;;10.15;5.70;;;13.50;46.00;;;;;;6276526;22;20000;-75
2023/04/08 10:11:11;;;;;;;8.95;5.63;;;13.60;46.20;;;;;;6273376;22;20081;-69
2023/04/08 10:13:37;;;;;;;12.48;6.47;;;13.60;45.80;;;;;;6275715;22;20000;-69
2023/04/08 10:16:24;;;;;;;11.52;5.70;;;13.70;45.80;;;;;;6276119;22;20479;-69
2023/04/08 10:19:00;;;;;;;12.00;6.28;;;13.70;46.90;;;;;;6275796;22;20027;-68
2023/04/08 10:21:40;;;;;;;13.23;6.35;;;13.80;47.10;;;;;;6275551;22;20389;-69
2023/04/08 10:24:07;;;;;;;10.18;6.72;;;13.80;47.50;;;;;;6275663;22;20011;-69
2023/04/08 10:26:39;;;;;;;11.30;6.32;;;13.90;48.10;;;;;;6275488;22;20049;-69
2023/04/08 10:29:31;;;;;;;11.75;5.25;;;13.90;47.60;;;;;;6275971;22;20003;-69
2023/04/08 10:31:57;;;;;;;10.95;5.53;;;13.90;46.70;;;;;;6268854;22;20022;-69
2023/04/08 10:34:26;;;;;;;8.05;4.97;;;13.90;46.50;;;;;;6275892;22;20006;-70
2023/04/08 10:36:54;;;;;;;8.90;5.93;;;13.90;45.60;;;;;;6248441;22;20466;-70
2023/04/08 10:39:20;;;;;;;9.88;6.70;;;13.90;46.80;;;;;;6275333;22;20311;-69
2023/04/08 10:41:48;;;;;;;12.20;7.70;;;14.00;46.30;;;;;;6275371;22;20019;-69
2023/04/08 10:44:22;;;;;;;8.88;4.85;;;14.00;46.00;;;;;;6275891;22;20014;-69
2023/04/08 10:46:49;;;;;;;8.10;4.65;;;14.00;46.80;;;;;;6275657;22;20017;-71
2023/04/08 10:49:16;;;;;;;7.43;4.30;;;14.00;46.30;;;;;;6275456;22;20004;-69
2023/04/08 10:51:43;;;;;;;7.00;4.47;;;14.00;46.70;;;;;;6275151;22;20426;-70
2023/04/08 10:54:18;;;;;;;7.40;5.05;;;14.10;46.60;;;;;;6275533;22;20006;-73
2023/04/08 10:56:49;;;;;;;7.65;4.07;;;14.00;45.80;;;;;;6275613;22;20003;-70
2023/04/08 10:59:28;;;;;;;6.75;3.90;;;14.10;46.20;;;;;;6275854;22;20007;-71
2023/04/08 11:01:54;;;;;;;8.15;3.40;;;14.10;46.90;;;;;;6275584;22;20330;-72
2023/04/08 11:04:22;;;;;;;6.88;3.38;;;14.10;46.10;;;;;;6275752;22;19999;-70
2023/04/08 11:06:50;;;;;;;6.15;3.47;;;14.10;46.60;;;;;;6248303;22;20030;-71
2023/04/08 11:09:16;;;;;;;6.78;3.40;;;14.10;47.00;;;;;;6276158;22;20026;-75
2023/04/08 11:11:43;;;;;;;6.35;3.70;;;14.10;47.50;;;;;;6275451;22;20442;-70
2023/04/08 11:14:09;;;;;;;6.78;3.42;;;14.10;46.70;;;;;;6276110;22;20079;-69
2023/04/08 11:16:39;;;;;;;5.82;3.15;;;14.10;47.30;;;;;;6275785;22;20080;-70
2023/04/08 11:19:05;;;;;;;6.35;3.47;;;14.10;46.90;;;;;;6275771;22;20007;-69
2023/04/08 11:21:35;;;;;;;10.45;3.38;;;14.10;46.70;;;;;;6275930;22;20008;-69
2023/04/08 11:24:05;;;;;;;7.75;3.50;;;14.10;46.70;;;;;;6275929;22;20003;-69
2023/04/08 11:26:31;;;;;;;6.45;3.60;;;14.10;47.00;;;;;;6276084;22;20003;-69
2023/04/08 11:28:57;;;;;;;5.63;3.08;;;14.20;46.80;;;;;;6275796;22;20079;-69
2023/04/08 11:31:23;;;;;;;5.47;3.53;;;14.10;45.90;;;;;;6276008;22;20003;-69
2023/04/08 11:33:53;;;;;;;6.20;3.47;;;14.20;46.10;;;;;;6275973;22;20011;-69
2023/04/08 11:36:20;;;;;;;7.80;3.88;;;14.20;44.60;;;;;;6277659;22;20003;-69
2023/04/08 11:38:46;;;;;;;7.20;3.83;;;14.20;45.00;;;;;;6278269;22;20000;-69
2023/04/08 11:41:12;;;;;;;8.30;3.30;;;14.10;45.00;;;;;;6277974;22;20070;-69
2023/04/08 11:43:39;;;;;;;7.88;3.70;;;14.20;45.10;;;;;;6277701;22;20031;-69
2023/04/08 11:46:11;;;;;;;6.28;3.67;;;14.20;46.30;;;;;;6277763;22;20397;-69
2023/04/08 11:48:38;;;;;;;7.20;3.83;;;14.20;46.90;;;;;;6277802;22;19999;-69
2023/04/08 11:51:08;;;;;;;7.85;3.58;;;14.20;45.40;;;;;;6277841;22;20016;-69
2023/04/08 11:53:36;;;;;;;10.32;4.20;;;14.20;45.40;;;;;;6277679;22;20000;-69
2023/04/08 11:56:17;;;;;;;8.60;3.17;;;14.20;44.60;;;;;;6250068;22;20138;-69
2023/04/08 11:58:43;;;;;;;8.70;3.40;;;14.20;45.00;;;;;;6277642;22;20326;-70
2023/04/08 12:01:09;;;;;;;7.65;3.75;;;14.20;45.30;;;;;;6275969;22;20018;-70
2023/04/08 12:03:35;;;;;;;7.22;3.20;;;14.20;45.60;;;;;;6274278;22;20004;-70
2023/04/08 12:06:01;;;;;;;8.02;3.50;;;14.20;44.80;;;;;;6274394;22;20014;-69
2023/04/08 12:08:27;;;;;;;8.93;4.07;;;14.20;44.60;;;;;;6276142;22;20050;-69
2023/04/08 12:10:52;;;;;;;9.63;4.13;;;14.20;42.60;;;;;;6277747;22;19995;-68
2023/04/08 12:13:18;;;;;;;5.18;3.30;;;14.20;43.10;;;;;;6277414;22;19999;-69
2023/04/08 12:15:44;;;;;;;6.50;3.13;;;14.30;43.20;;;;;;6277649;22;20074;-69
2023/04/08 12:18:10;;;;;;;5.15;2.92;;;14.20;44.10;;;;;;6277373;22;20016;-68
2023/04/08 12:20:35;;;;;;;6.28;3.22;;;14.20;44.30;;;;;;6277101;22;20007;-71
2023/04/08 12:23:01;;;;;;;7.95;3.88;;;14.20;43.70;;;;;;6277395;22;20003;-69
2023/04/08 12:25:27;;;;;;;5.95;3.30;;;14.20;44.30;;;;;;6276626;22;19996;-70
2023/04/08 12:27:53;;;;;;;6.63;3.78;;;14.20;44.40;;;;;;6277767;22;20094;-73
2023/04/08 12:30:20;;;;;;;8.45;3.35;;;14.20;43.60;;;;;;6248696;22;20137;-70
2023/04/08 12:32:46;;;;;;;4.93;3.35;;;14.20;44.40;;;;;;6273906;22;20008;-69
2023/04/08 12:35:12;;;;;;;5.32;3.22;;;14.20;43.60;;;;;;6274565;22;20331;-70
2023/04/08 12:37:38;;;;;;;6.45;3.65;;;14.20;43.10;;;;;;6277091;22;20071;-70
2023/04/08 12:40:04;;;;;;;5.00;2.90;;;14.20;43.30;;;;;;6277411;22;20018;-69